sensor_id;sensor_type;location;lat;lon;timestamp;pressure;altitude;pressure_sealevel;temperature;humidity
55687;BME280;41911;52.362;4.978;2023-05-23T00:00:05;102017.80;;;14.18;51.83
55687;BME280;41911;52.362;4.978;2023-05-23T00:00:36;102016.84;;;13.38;52.51
55687;BME280;41911;52.362;4.978;2023-05-23T00:01:07;102018.20;;;14.00;51.97
55687;BME280;41911;52.362;4.978;2023-05-23T00:01:38;102024.29;;;14.11;51.41
55687;BME280;41911;52.362;4.978;2023-05-23T00:02:09;102018.52;;;14.13;51.42
55687;BME280;41911;52.362;4.978;2023-05-23T00:02:40;102018.36;;;13.84;51.60
55687;BME280;41911;52.362;4.978;2023-05-23T00:03:12;102019.39;;;14.08;51.78
55687;BME280;41911;52.362;4.978;2023-05-23T00:03:43;102020.23;;;13.92;51.50
55687;BME280;41911;52.362;4.978;2023-05-23T00:04:14;102015.16;;;13.81;51.53
55687;BME280;41911;52.362;4.978;2023-05-23T00:04:47;102014.53;;;13.99;51.77
55687;BME280;41911;52.362;4.978;2023-05-23T00:05:18;102015.23;;;13.96;51.44
55687;BME280;41911;52.362;4.978;2023-05-23T00:05:49;102020.28;;;13.99;51.36
55687;BME280;41911;52.362;4.978;2023-05-23T00:06:20;102019.40;;;13.76;51.30
55687;BME280;41911;52.362;4.978;2023-05-23T00:06:51;102024.93;;;14.36;51.12
55687;BME280;41911;52.362;4.978;2023-05-23T00:07:22;102021.98;;;14.23;51.18
55687;BME280;41911;52.362;4.978;2023-05-23T00:07:53;102017.26;;;14.08;51.55
55687;BME280;41911;52.362;4.978;2023-05-23T00:08:24;102019.09;;;13.51;52.04
55687;BME280;41911;52.362;4.978;2023-05-23T00:08:55;102017.44;;;14.30;51.69
55687;BME280;41911;52.362;4.978;2023-05-23T00:09:26;102018.97;;;13.48;52.76
55687;BME280;41911;52.362;4.978;2023-05-23T00:09:57;102021.98;;;13.50;52.72
55687;BME280;41911;52.362;4.978;2023-05-23T00:10:28;102027.12;;;13.20;52.41
55687;BME280;41911;52.362;4.978;2023-05-23T00:10:59;102016.73;;;13.50;52.07
55687;BME280;41911;52.362;4.978;2023-05-23T00:11:30;102020.70;;;13.53;51.83
55687;BME280;41911;52.362;4.978;2023-05-23T00:12:01;102026.52;;;13.71;52.08
55687;BME280;41911;52.362;4.978;2023-05-23T00:12:32;102021.32;;;13.72;51.62
55687;BME280;41911;52.362;4.978;2023-05-23T00:13:05;102024.91;;;13.91;51.63
55687;BME280;41911;52.362;4.978;2023-05-23T00:13:37;102019.78;;;13.90;51.57
55687;BME280;41911;52.362;4.978;2023-05-23T00:14:08;102024.87;;;13.96;51.31
55687;BME280;41911;52.362;4.978;2023-05-23T00:14:39;102021.66;;;13.80;52.01
55687;BME280;41911;52.362;4.978;2023-05-23T00:15:10;102026.25;;;13.37;52.25
55687;BME280;41911;52.362;4.978;2023-05-23T00:15:41;102026.59;;;13.28;51.78
55687;BME280;41911;52.362;4.978;2023-05-23T00:16:12;102027.00;;;13.55;51.93
55687;BME280;41911;52.362;4.978;2023-05-23T00:16:44;102024.03;;;13.68;51.81
55687;BME280;41911;52.362;4.978;2023-05-23T00:17:15;102018.57;;;13.59;51.41
55687;BME280;41911;52.362;4.978;2023-05-23T00:17:46;102024.38;;;13.96;51.25
55687;BME280;41911;52.362;4.978;2023-05-23T00:18:17;102020.83;;;13.51;51.54
55687;BME280;41911;52.362;4.978;2023-05-23T00:18:48;102024.46;;;13.66;51.20
55687;BME280;41911;52.362;4.978;2023-05-23T00:19:19;102026.46;;;13.77;50.90
55687;BME280;41911;52.362;4.978;2023-05-23T00:19:50;102026.56;;;14.16;50.90
55687;BME280;41911;52.362;4.978;2023-05-23T00:20:21;102021.41;;;14.06;50.85
55687;BME280;41911;52.362;4.978;2023-05-23T00:20:52;102022.51;;;14.29;50.45
55687;BME280;41911;52.362;4.978;2023-05-23T00:21:23;102031.66;;;14.02;50.66
55687;BME280;41911;52.362;4.978;2023-05-23T00:21:54;102025.93;;;13.71;50.92
55687;BME280;41911;52.362;4.978;2023-05-23T00:22:25;102022.58;;;13.80;51.10
55687;BME280;41911;52.362;4.978;2023-05-23T00:22:56;102023.69;;;13.56;51.24
55687;BME280;41911;52.362;4.978;2023-05-23T00:23:27;102022.58;;;13.37;51.39
55687;BME280;41911;52.362;4.978;2023-05-23T00:23:58;102024.62;;;12.95;52.33
55687;BME280;41911;52.362;4.978;2023-05-23T00:24:29;102019.51;;;13.66;51.95
55687;BME280;41911;52.362;4.978;2023-05-23T00:25:01;102022.04;;;13.51;51.82
55687;BME280;41911;52.362;4.978;2023-05-23T00:25:32;102020.77;;;13.85;51.89
55687;BME280;41911;52.362;4.978;2023-05-23T00:26:03;102015.84;;;13.76;51.79
55687;BME280;41911;52.362;4.978;2023-05-23T00:26:34;102023.22;;;13.90;51.63
55687;BME280;41911;52.362;4.978;2023-05-23T00:27:05;102019.46;;;13.88;51.84
55687;BME280;41911;52.362;4.978;2023-05-23T00:27:36;102019.65;;;13.71;51.77
55687;BME280;41911;52.362;4.978;2023-05-23T00:28:07;102016.65;;;13.51;51.68
55687;BME280;41911;52.362;4.978;2023-05-23T00:28:38;102021.68;;;14.05;51.41
55687;BME280;41911;52.362;4.978;2023-05-23T00:29:09;102020.20;;;13.97;51.52
55687;BME280;41911;52.362;4.978;2023-05-23T00:29:40;102021.12;;;13.98;51.61
55687;BME280;41911;52.362;4.978;2023-05-23T00:30:11;102021.34;;;13.80;51.26
55687;BME280;41911;52.362;4.978;2023-05-23T00:30:42;102018.22;;;13.86;51.33
55687;BME280;41911;52.362;4.978;2023-05-23T00:31:13;102022.21;;;14.12;51.07
55687;BME280;41911;52.362;4.978;2023-05-23T00:31:45;102021.40;;;14.21;51.28
55687;BME280;41911;52.362;4.978;2023-05-23T00:32:16;102021.36;;;14.37;51.00
55687;BME280;41911;52.362;4.978;2023-05-23T00:32:47;102020.70;;;14.19;50.96
55687;BME280;41911;52.362;4.978;2023-05-23T00:33:18;102024.19;;;14.19;50.72
55687;BME280;41911;52.362;4.978;2023-05-23T00:33:49;102028.25;;;14.43;50.57
55687;BME280;41911;52.362;4.978;2023-05-23T00:34:20;102024.47;;;14.43;50.44
55687;BME280;41911;52.362;4.978;2023-05-23T00:34:51;102018.61;;;14.40;50.29
55687;BME280;41911;52.362;4.978;2023-05-23T00:35:22;102025.90;;;14.25;50.53
55687;BME280;41911;52.362;4.978;2023-05-23T00:35:53;102023.79;;;14.54;50.70
55687;BME280;41911;52.362;4.978;2023-05-23T00:36:24;102021.61;;;13.91;51.32
55687;BME280;41911;52.362;4.978;2023-05-23T00:36:55;102023.73;;;13.65;51.32
55687;BME280;41911;52.362;4.978;2023-05-23T00:37:26;102022.96;;;14.07;51.02
55687;BME280;41911;52.362;4.978;2023-05-23T00:37:56;102028.03;;;14.00;51.00
55687;BME280;41911;52.362;4.978;2023-05-23T00:38:29;102023.76;;;14.27;50.90
55687;BME280;41911;52.362;4.978;2023-05-23T00:39:00;102026.48;;;14.33;50.89
55687;BME280;41911;52.362;4.978;2023-05-23T00:39:31;102027.36;;;13.86;51.22
55687;BME280;41911;52.362;4.978;2023-05-23T00:40:02;102028.57;;;14.03;51.21
55687;BME280;41911;52.362;4.978;2023-05-23T00:40:33;102030.40;;;13.58;51.23
55687;BME280;41911;52.362;4.978;2023-05-23T00:41:04;102028.58;;;14.01;51.18
55687;BME280;41911;52.362;4.978;2023-05-23T00:41:35;102038.29;;;14.04;51.30
55687;BME280;41911;52.362;4.978;2023-05-23T00:42:07;102032.51;;;13.99;51.57
55687;BME280;41911;52.362;4.978;2023-05-23T00:42:38;102031.77;;;13.75;51.84
55687;BME280;41911;52.362;4.978;2023-05-23T00:43:09;102026.52;;;13.26;52.71
55687;BME280;41911;52.362;4.978;2023-05-23T00:43:40;102030.15;;;13.96;52.47
55687;BME280;41911;52.362;4.978;2023-05-23T00:44:11;102026.91;;;14.16;52.28
55687;BME280;41911;52.362;4.978;2023-05-23T00:44:42;102029.00;;;13.89;51.87
55687;BME280;41911;52.362;4.978;2023-05-23T00:45:13;102032.88;;;13.75;52.16
55687;BME280;41911;52.362;4.978;2023-05-23T00:45:45;102028.53;;;13.74;52.43
55687;BME280;41911;52.362;4.978;2023-05-23T00:46:15;102033.28;;;13.96;52.21
55687;BME280;41911;52.362;4.978;2023-05-23T00:46:51;102023.25;;;13.39;52.39
55687;BME280;41911;52.362;4.978;2023-05-23T00:47:23;102026.53;;;13.79;52.09
55687;BME280;41911;52.362;4.978;2023-05-23T00:47:55;102027.16;;;14.10;51.97
55687;BME280;41911;52.362;4.978;2023-05-23T00:48:26;102026.86;;;13.44;52.36
55687;BME280;41911;52.362;4.978;2023-05-23T00:48:58;102026.23;;;13.75;52.58
55687;BME280;41911;52.362;4.978;2023-05-23T00:49:29;102029.24;;;13.55;52.58
55687;BME280;41911;52.362;4.978;2023-05-23T00:50:01;102027.36;;;14.00;52.40
55687;BME280;41911;52.362;4.978;2023-05-23T00:50:32;102028.09;;;14.08;52.39
55687;BME280;41911;52.362;4.978;2023-05-23T00:51:03;102027.67;;;13.89;52.26
55687;BME280;41911;52.362;4.978;2023-05-23T00:51:34;102043.52;;;13.95;52.28
55687;BME280;41911;52.362;4.978;2023-05-23T00:52:05;102028.07;;;13.64;52.49
55687;BME280;41911;52.362;4.978;2023-05-23T00:52:36;102031.84;;;13.97;52.19
55687;BME280;41911;52.362;4.978;2023-05-23T00:53:08;102033.64;;;13.96;52.00
55687;BME280;41911;52.362;4.978;2023-05-23T00:53:40;102045.74;;;13.59;52.52
55687;BME280;41911;52.362;4.978;2023-05-23T00:54:12;102038.15;;;13.60;52.69
55687;BME280;41911;52.362;4.978;2023-05-23T00:54:45;102032.99;;;13.15;53.81
55687;BME280;41911;52.362;4.978;2023-05-23T00:55:16;102033.12;;;13.40;53.33
55687;BME280;41911;52.362;4.978;2023-05-23T00:55:47;102037.04;;;13.35;53.13
55687;BME280;41911;52.362;4.978;2023-05-23T00:56:19;102034.63;;;13.41;53.15
55687;BME280;41911;52.362;4.978;2023-05-23T00:56:52;102039.42;;;14.26;53.12
55687;BME280;41911;52.362;4.978;2023-05-23T00:57:23;102038.92;;;13.71;52.88
55687;BME280;41911;52.362;4.978;2023-05-23T00:57:54;102040.19;;;13.70;52.71
55687;BME280;41911;52.362;4.978;2023-05-23T00:58:25;102043.94;;;13.86;52.69
55687;BME280;41911;52.362;4.978;2023-05-23T00:58:57;102042.71;;;14.03;52.61
55687;BME280;41911;52.362;4.978;2023-05-23T00:59:29;102042.70;;;13.95;53.00
55687;BME280;41911;52.362;4.978;2023-05-23T01:00:00;102039.97;;;13.89;52.52
55687;BME280;41911;52.362;4.978;2023-05-23T01:00:32;102042.34;;;13.85;52.72
55687;BME280;41911;52.362;4.978;2023-05-23T01:01:03;102043.41;;;14.02;52.57
55687;BME280;41911;52.362;4.978;2023-05-23T01:01:34;102042.67;;;14.21;52.32
55687;BME280;41911;52.362;4.978;2023-05-23T01:02:05;102049.84;;;14.24;52.11
55687;BME280;41911;52.362;4.978;2023-05-23T01:02:41;102042.30;;;13.69;52.89
55687;BME280;41911;52.362;4.978;2023-05-23T01:03:13;102041.31;;;13.63;52.61
55687;BME280;41911;52.362;4.978;2023-05-23T01:03:43;102039.86;;;13.91;52.36
55687;BME280;41911;52.362;4.978;2023-05-23T01:04:15;102040.10;;;13.87;52.29
55687;BME280;41911;52.362;4.978;2023-05-23T01:04:46;102038.57;;;13.85;52.31
55687;BME280;41911;52.362;4.978;2023-05-23T01:05:18;102038.39;;;13.93;52.14
55687;BME280;41911;52.362;4.978;2023-05-23T01:05:50;102040.01;;;14.06;51.89
55687;BME280;41911;52.362;4.978;2023-05-23T01:06:21;102041.24;;;14.10;52.08
55687;BME280;41911;52.362;4.978;2023-05-23T01:06:53;102044.81;;;13.69;51.66
55687;BME280;41911;52.362;4.978;2023-05-23T01:07:24;102045.24;;;14.00;51.29
55687;BME280;41911;52.362;4.978;2023-05-23T01:07:56;102043.31;;;13.90;51.51
55687;BME280;41911;52.362;4.978;2023-05-23T01:08:28;102040.57;;;13.18;52.65
55687;BME280;41911;52.362;4.978;2023-05-23T01:08:59;102040.84;;;13.68;52.16
55687;BME280;41911;52.362;4.978;2023-05-23T01:09:31;102042.17;;;13.70;51.83
55687;BME280;41911;52.362;4.978;2023-05-23T01:10:02;102040.61;;;13.79;51.61
55687;BME280;41911;52.362;4.978;2023-05-23T01:10:33;102042.34;;;13.94;51.43
55687;BME280;41911;52.362;4.978;2023-05-23T01:11:10;102044.53;;;14.15;50.80
55687;BME280;41911;52.362;4.978;2023-05-23T01:11:47;102043.99;;;14.02;50.73
55687;BME280;41911;52.362;4.978;2023-05-23T01:12:26;102045.35;;;13.60;51.22
55687;BME280;41911;52.362;4.978;2023-05-23T01:13:09;102046.72;;;13.94;50.82
55687;BME280;41911;52.362;4.978;2023-05-23T01:13:50;102048.79;;;14.06;50.01
55687;BME280;41911;52.362;4.978;2023-05-23T01:14:29;102045.86;;;14.08;50.37
55687;BME280;41911;52.362;4.978;2023-05-23T01:15:06;102049.83;;;14.10;50.39
55687;BME280;41911;52.362;4.978;2023-05-23T01:15:42;102049.33;;;13.97;50.29
55687;BME280;41911;52.362;4.978;2023-05-23T01:16:17;102045.73;;;13.28;51.54
55687;BME280;41911;52.362;4.978;2023-05-23T01:16:54;102044.63;;;13.62;50.68
55687;BME280;41911;52.362;4.978;2023-05-23T01:17:33;102043.40;;;13.46;51.06
55687;BME280;41911;52.362;4.978;2023-05-23T01:18:09;102045.13;;;13.53;51.21
55687;BME280;41911;52.362;4.978;2023-05-23T01:18:49;102046.58;;;13.79;51.04
55687;BME280;41911;52.362;4.978;2023-05-23T01:19:47;102046.92;;;14.08;49.97
55687;BME280;41911;52.362;4.978;2023-05-23T01:20:21;102042.52;;;14.18;50.17
55687;BME280;41911;52.362;4.978;2023-05-23T01:20:54;102048.63;;;14.51;49.77
55687;BME280;41911;52.362;4.978;2023-05-23T01:21:27;102045.01;;;14.18;49.70
55687;BME280;41911;52.362;4.978;2023-05-23T01:22:02;102046.62;;;14.16;50.07
55687;BME280;41911;52.362;4.978;2023-05-23T01:22:48;102048.81;;;13.54;50.21
55687;BME280;41911;52.362;4.978;2023-05-23T01:23:45;102048.35;;;13.70;49.98
55687;BME280;41911;52.362;4.978;2023-05-23T01:24:31;102045.05;;;13.79;50.38
55687;BME280;41911;52.362;4.978;2023-05-23T01:25:13;102046.98;;;13.49;50.30
55687;BME280;41911;52.362;4.978;2023-05-23T01:26:03;102051.07;;;13.68;49.87
55687;BME280;41911;52.362;4.978;2023-05-23T01:26:51;102049.79;;;13.50;50.15
55687;BME280;41911;52.362;4.978;2023-05-23T01:27:48;102050.74;;;13.63;49.80
55687;BME280;41911;52.362;4.978;2023-05-23T01:28:22;102047.55;;;13.72;49.81
55687;BME280;41911;52.362;4.978;2023-05-23T01:29:03;102047.12;;;13.62;49.68
55687;BME280;41911;52.362;4.978;2023-05-23T01:29:40;102046.82;;;13.65;49.87
55687;BME280;41911;52.362;4.978;2023-05-23T01:30:12;102045.98;;;13.96;49.47
55687;BME280;41911;52.362;4.978;2023-05-23T01:30:51;102044.78;;;14.13;49.14
55687;BME280;41911;52.362;4.978;2023-05-23T01:31:26;102045.59;;;14.35;48.97
55687;BME280;41911;52.362;4.978;2023-05-23T01:32:03;102046.24;;;14.14;48.83
55687;BME280;41911;52.362;4.978;2023-05-23T01:32:36;102045.38;;;14.06;48.60
55687;BME280;41911;52.362;4.978;2023-05-23T01:33:09;102045.94;;;13.87;48.94
55687;BME280;41911;52.362;4.978;2023-05-23T01:33:44;102046.97;;;14.07;48.79
55687;BME280;41911;52.362;4.978;2023-05-23T01:34:17;102046.73;;;14.18;48.90
55687;BME280;41911;52.362;4.978;2023-05-23T01:34:52;102045.11;;;14.47;48.46
55687;BME280;41911;52.362;4.978;2023-05-23T01:35:25;102047.47;;;14.06;48.55
55687;BME280;41911;52.362;4.978;2023-05-23T01:36:00;102049.96;;;14.44;48.37
55687;BME280;41911;52.362;4.978;2023-05-23T01:36:33;102044.63;;;14.45;48.23
55687;BME280;41911;52.362;4.978;2023-05-23T01:37:07;102049.69;;;14.43;48.43
55687;BME280;41911;52.362;4.978;2023-05-23T01:37:40;102048.79;;;14.28;48.45
55687;BME280;41911;52.362;4.978;2023-05-23T01:38:11;102047.12;;;14.73;47.93
55687;BME280;41911;52.362;4.978;2023-05-23T01:38:42;102047.61;;;14.75;47.67
55687;BME280;41911;52.362;4.978;2023-05-23T01:39:13;102055.95;;;14.75;47.97
55687;BME280;41911;52.362;4.978;2023-05-23T01:39:44;102053.04;;;14.04;48.62
55687;BME280;41911;52.362;4.978;2023-05-23T01:40:15;102052.19;;;13.92;48.74
55687;BME280;41911;52.362;4.978;2023-05-23T01:40:46;102047.48;;;13.82;48.93
55687;BME280;41911;52.362;4.978;2023-05-23T01:41:17;102045.17;;;14.10;48.64
55687;BME280;41911;52.362;4.978;2023-05-23T01:41:48;102040.78;;;14.21;48.39
55687;BME280;41911;52.362;4.978;2023-05-23T01:42:20;102053.79;;;13.99;48.63
55687;BME280;41911;52.362;4.978;2023-05-23T01:42:52;102044.22;;;13.85;48.83
55687;BME280;41911;52.362;4.978;2023-05-23T01:43:24;102043.74;;;13.59;49.54
55687;BME280;41911;52.362;4.978;2023-05-23T01:43:55;102040.98;;;13.92;49.19
55687;BME280;41911;52.362;4.978;2023-05-23T01:44:26;102043.99;;;13.98;48.76
55687;BME280;41911;52.362;4.978;2023-05-23T01:44:58;102047.22;;;14.06;48.77
55687;BME280;41911;52.362;4.978;2023-05-23T01:45:29;102051.92;;;14.17;48.36
55687;BME280;41911;52.362;4.978;2023-05-23T01:46:00;102043.05;;;14.25;48.25
55687;BME280;41911;52.362;4.978;2023-05-23T01:46:33;102040.31;;;14.37;48.11
55687;BME280;41911;52.362;4.978;2023-05-23T01:47:06;102047.82;;;14.47;47.92
55687;BME280;41911;52.362;4.978;2023-05-23T01:47:39;102041.15;;;14.23;47.98
55687;BME280;41911;52.362;4.978;2023-05-23T01:48:11;102043.41;;;14.00;48.00
55687;BME280;41911;52.362;4.978;2023-05-23T01:48:45;102044.10;;;14.58;47.73
55687;BME280;41911;52.362;4.978;2023-05-23T01:49:17;102038.35;;;14.48;47.93
55687;BME280;41911;52.362;4.978;2023-05-23T01:49:50;102044.95;;;14.60;47.57
55687;BME280;41911;52.362;4.978;2023-05-23T01:50:23;102040.80;;;14.54;47.62
55687;BME280;41911;52.362;4.978;2023-05-23T01:50:55;102042.20;;;14.64;47.56
55687;BME280;41911;52.362;4.978;2023-05-23T01:51:26;102040.38;;;14.48;47.45
55687;BME280;41911;52.362;4.978;2023-05-23T01:51:58;102038.52;;;14.08;47.71
55687;BME280;41911;52.362;4.978;2023-05-23T01:52:30;102035.69;;;14.54;47.42
55687;BME280;41911;52.362;4.978;2023-05-23T01:53:02;102037.04;;;14.28;47.28
55687;BME280;41911;52.362;4.978;2023-05-23T01:53:33;102037.23;;;14.67;47.23
55687;BME280;41911;52.362;4.978;2023-05-23T01:54:05;102034.74;;;14.39;47.65
55687;BME280;41911;52.362;4.978;2023-05-23T01:54:36;102034.36;;;14.63;47.55
55687;BME280;41911;52.362;4.978;2023-05-23T01:55:08;102035.34;;;14.44;47.58
55687;BME280;41911;52.362;4.978;2023-05-23T01:55:40;102035.95;;;14.66;47.33
55687;BME280;41911;52.362;4.978;2023-05-23T01:56:12;102035.58;;;14.59;47.71
55687;BME280;41911;52.362;4.978;2023-05-23T01:56:44;102037.49;;;14.74;47.33
55687;BME280;41911;52.362;4.978;2023-05-23T01:57:15;102040.49;;;14.11;47.39
55687;BME280;41911;52.362;4.978;2023-05-23T01:57:47;102040.47;;;14.22;47.55
55687;BME280;41911;52.362;4.978;2023-05-23T01:58:20;102041.40;;;14.49;47.27
55687;BME280;41911;52.362;4.978;2023-05-23T01:58:51;102037.71;;;14.45;47.23
55687;BME280;41911;52.362;4.978;2023-05-23T01:59:22;102043.02;;;14.79;47.23
55687;BME280;41911;52.362;4.978;2023-05-23T01:59:53;102037.30;;;14.22;47.22
55687;BME280;41911;52.362;4.978;2023-05-23T02:00:24;102040.22;;;14.71;47.12
55687;BME280;41911;52.362;4.978;2023-05-23T02:00:55;102041.73;;;14.93;46.77
55687;BME280;41911;52.362;4.978;2023-05-23T02:01:27;102042.03;;;14.77;47.14
55687;BME280;41911;52.362;4.978;2023-05-23T02:01:58;102042.40;;;14.47;47.33
55687;BME280;41911;52.362;4.978;2023-05-23T02:02:29;102043.80;;;14.81;46.89
55687;BME280;41911;52.362;4.978;2023-05-23T02:03:00;102041.21;;;14.83;46.67
55687;BME280;41911;52.362;4.978;2023-05-23T02:03:31;102041.91;;;14.75;46.29
55687;BME280;41911;52.362;4.978;2023-05-23T02:04:03;102046.16;;;14.58;46.61
55687;BME280;41911;52.362;4.978;2023-05-23T02:04:34;102047.95;;;13.99;46.96
55687;BME280;41911;52.362;4.978;2023-05-23T02:05:05;102050.25;;;14.65;46.92
55687;BME280;41911;52.362;4.978;2023-05-23T02:05:36;102053.22;;;14.50;47.13
55687;BME280;41911;52.362;4.978;2023-05-23T02:06:07;102053.68;;;14.67;47.02
55687;BME280;41911;52.362;4.978;2023-05-23T02:06:38;102055.31;;;14.99;46.83
55687;BME280;41911;52.362;4.978;2023-05-23T02:07:09;102052.88;;;14.32;47.01
55687;BME280;41911;52.362;4.978;2023-05-23T02:07:40;102054.17;;;14.56;47.37
55687;BME280;41911;52.362;4.978;2023-05-23T02:08:11;102054.30;;;14.69;47.04
55687;BME280;41911;52.362;4.978;2023-05-23T02:08:42;102055.48;;;14.36;47.23
55687;BME280;41911;52.362;4.978;2023-05-23T02:09:13;102057.52;;;14.44;47.17
55687;BME280;41911;52.362;4.978;2023-05-23T02:09:44;102056.26;;;14.32;47.16
55687;BME280;41911;52.362;4.978;2023-05-23T02:10:15;102056.36;;;14.33;46.98
55687;BME280;41911;52.362;4.978;2023-05-23T02:10:46;102060.76;;;14.64;46.94
55687;BME280;41911;52.362;4.978;2023-05-23T02:11:17;102056.88;;;14.64;46.78
55687;BME280;41911;52.362;4.978;2023-05-23T02:11:48;102060.54;;;14.60;46.58
55687;BME280;41911;52.362;4.978;2023-05-23T02:12:19;102058.70;;;14.09;46.99
55687;BME280;41911;52.362;4.978;2023-05-23T02:12:50;102058.28;;;14.38;47.11
55687;BME280;41911;52.362;4.978;2023-05-23T02:13:21;102057.90;;;14.52;46.38
55687;BME280;41911;52.362;4.978;2023-05-23T02:13:52;102059.09;;;14.50;46.59
55687;BME280;41911;52.362;4.978;2023-05-23T02:14:23;102059.44;;;14.39;46.72
55687;BME280;41911;52.362;4.978;2023-05-23T02:14:54;102057.25;;;13.31;48.00
55687;BME280;41911;52.362;4.978;2023-05-23T02:15:25;102057.02;;;13.64;47.85
55687;BME280;41911;52.362;4.978;2023-05-23T02:15:56;102058.25;;;13.47;47.74
55687;BME280;41911;52.362;4.978;2023-05-23T02:16:27;102060.61;;;13.64;47.57
55687;BME280;41911;52.362;4.978;2023-05-23T02:16:58;102061.66;;;13.72;47.36
55687;BME280;41911;52.362;4.978;2023-05-23T02:17:29;102063.19;;;13.58;47.53
55687;BME280;41911;52.362;4.978;2023-05-23T02:18:00;102062.49;;;13.71;47.53
55687;BME280;41911;52.362;4.978;2023-05-23T02:18:31;102063.30;;;13.69;47.65
55687;BME280;41911;52.362;4.978;2023-05-23T02:19:02;102069.37;;;14.05;47.29
55687;BME280;41911;52.362;4.978;2023-05-23T02:19:32;102070.09;;;13.81;47.21
55687;BME280;41911;52.362;4.978;2023-05-23T02:20:04;102071.94;;;13.97;47.30
55687;BME280;41911;52.362;4.978;2023-05-23T02:20:35;102071.48;;;13.74;47.20
55687;BME280;41911;52.362;4.978;2023-05-23T02:21:06;102071.30;;;14.03;47.15
55687;BME280;41911;52.362;4.978;2023-05-23T02:21:37;102076.32;;;13.96;47.19
55687;BME280;41911;52.362;4.978;2023-05-23T02:22:08;102073.52;;;13.62;47.40
55687;BME280;41911;52.362;4.978;2023-05-23T02:22:39;102076.11;;;13.61;47.70
55687;BME280;41911;52.362;4.978;2023-05-23T02:23:10;102079.61;;;13.73;47.36
55687;BME280;41911;52.362;4.978;2023-05-23T02:23:41;102073.75;;;13.80;47.28
55687;BME280;41911;52.362;4.978;2023-05-23T02:24:12;102073.10;;;14.12;47.02
55687;BME280;41911;52.362;4.978;2023-05-23T02:24:43;102076.38;;;13.79;47.04
55687;BME280;41911;52.362;4.978;2023-05-23T02:25:14;102082.19;;;14.01;46.87
55687;BME280;41911;52.362;4.978;2023-05-23T02:25:45;102084.46;;;14.01;46.82
55687;BME280;41911;52.362;4.978;2023-05-23T02:26:16;102077.45;;;13.79;47.14
55687;BME280;41911;52.362;4.978;2023-05-23T02:26:47;102085.27;;;14.01;46.90
55687;BME280;41911;52.362;4.978;2023-05-23T02:27:18;102079.74;;;14.02;46.78
55687;BME280;41911;52.362;4.978;2023-05-23T02:27:49;102084.31;;;13.97;46.71
55687;BME280;41911;52.362;4.978;2023-05-23T02:28:20;102088.94;;;14.15;46.17
55687;BME280;41911;52.362;4.978;2023-05-23T02:28:51;102080.90;;;14.24;46.21
55687;BME280;41911;52.362;4.978;2023-05-23T02:29:22;102079.96;;;13.79;46.69
55687;BME280;41911;52.362;4.978;2023-05-23T02:29:53;102079.87;;;13.57;46.77
55687;BME280;41911;52.362;4.978;2023-05-23T02:30:24;102083.63;;;13.76;46.82
55687;BME280;41911;52.362;4.978;2023-05-23T02:30:54;102083.62;;;13.51;46.97
55687;BME280;41911;52.362;4.978;2023-05-23T02:31:25;102087.60;;;13.72;47.24
55687;BME280;41911;52.362;4.978;2023-05-23T02:31:56;102088.94;;;12.84;48.45
55687;BME280;41911;52.362;4.978;2023-05-23T02:32:27;102081.36;;;13.00;48.41
55687;BME280;41911;52.362;4.978;2023-05-23T02:32:58;102079.09;;;13.69;47.87
55687;BME280;41911;52.362;4.978;2023-05-23T02:33:34;102087.20;;;13.44;48.15
55687;BME280;41911;52.362;4.978;2023-05-23T02:34:04;102090.39;;;13.19;48.45
55687;BME280;41911;52.362;4.978;2023-05-23T02:34:35;102084.26;;;12.98;49.24
55687;BME280;41911;52.362;4.978;2023-05-23T02:35:07;102090.30;;;13.36;48.54
55687;BME280;41911;52.362;4.978;2023-05-23T02:35:38;102084.83;;;13.08;48.30
55687;BME280;41911;52.362;4.978;2023-05-23T02:36:09;102082.52;;;13.65;48.05
55687;BME280;41911;52.362;4.978;2023-05-23T02:36:40;102085.40;;;12.70;48.62
55687;BME280;41911;52.362;4.978;2023-05-23T02:37:12;102086.39;;;12.79;48.78
55687;BME280;41911;52.362;4.978;2023-05-23T02:37:43;102086.31;;;13.57;48.57
55687;BME280;41911;52.362;4.978;2023-05-23T02:38:14;102087.90;;;13.32;48.65
55687;BME280;41911;52.362;4.978;2023-05-23T02:38:45;102085.96;;;12.94;48.70
55687;BME280;41911;52.362;4.978;2023-05-23T02:39:16;102088.51;;;13.15;49.14
55687;BME280;41911;52.362;4.978;2023-05-23T02:39:47;102090.65;;;13.14;49.06
55687;BME280;41911;52.362;4.978;2023-05-23T02:40:18;102088.25;;;12.89;49.01
55687;BME280;41911;52.362;4.978;2023-05-23T02:40:49;102090.72;;;13.08;48.93
55687;BME280;41911;52.362;4.978;2023-05-23T02:41:20;102087.84;;;13.41;48.44
55687;BME280;41911;52.362;4.978;2023-05-23T02:41:51;102093.84;;;13.36;48.38
55687;BME280;41911;52.362;4.978;2023-05-23T02:42:22;102089.97;;;13.17;48.57
55687;BME280;41911;52.362;4.978;2023-05-23T02:42:52;102102.57;;;13.39;48.72
55687;BME280;41911;52.362;4.978;2023-05-23T02:43:23;102095.32;;;12.34;49.42
55687;BME280;41911;52.362;4.978;2023-05-23T02:43:54;102089.46;;;12.79;49.08
55687;BME280;41911;52.362;4.978;2023-05-23T02:44:25;102088.22;;;12.49;49.19
55687;BME280;41911;52.362;4.978;2023-05-23T02:44:56;102083.42;;;12.84;48.78
55687;BME280;41911;52.362;4.978;2023-05-23T02:45:27;102090.50;;;12.91;49.09
55687;BME280;41911;52.362;4.978;2023-05-23T02:45:58;102092.46;;;13.13;48.70
55687;BME280;41911;52.362;4.978;2023-05-23T02:46:29;102087.85;;;13.05;48.54
55687;BME280;41911;52.362;4.978;2023-05-23T02:47:00;102091.89;;;12.98;48.17
55687;BME280;41911;52.362;4.978;2023-05-23T02:47:31;102087.59;;;13.10;48.28
55687;BME280;41911;52.362;4.978;2023-05-23T02:48:02;102087.85;;;13.17;48.26
55687;BME280;41911;52.362;4.978;2023-05-23T02:48:33;102091.65;;;13.62;48.04